LELN/LEN METAR and TAF weather

Enter ICAO airport designator
Station Type Date Time Source
LELN METAR 2022/01/23 12:00 UTC NOAA

LELN 231200Z 11003KT 060V170 CAVOK 07/M04 Q1024


Station Type Date Time Source
LELN Decoded METAR 2022/01/23 12:00 UTC NOAA

Leon / Virgen Del Camino, Spain (LELN) 42-35N 005-39W 914M
Jan 23, 2022 - 07:00 AM EST / 2022.01.23 1200 UTC
Wind: from the ESE (110 degrees) at 3 MPH (3 KT) (direction variable):0
Visibility: greater than 7 mile(s):0
Temperature: 44 F (7 C)
Dew Point: 24 F (-4 C)
Relative Humidity: 45%
Pressure (altimeter): 30.24 in. Hg (1024 hPa)
ob: LELN 231200Z 11003KT 060V170 CAVOK 07/M04 Q1024
cycle: 12

Station Type Date Time Source
LELN TAF 2022/01/23 09:27 UTC NOAA

TAF LELN 230800Z 2309/2409 VRB05KT CAVOK TX10/2315Z TNM06/2407Z

Example: see airport list